Terminal Aerodrome Forecast
Issued by NWS Jacksonville, FL

Home | Current Version | Previous Version | Text Only | Print | Product List | Glossary On
Versions: 1 2 3 4 5 6 7 8 9 10 11 12 13 14 15 16 17 18
000
FTUS42 KJAX 271757
TAFSSI
TAF
KSSI 271757Z 2718/2818 16012G22KT P6SM SCT050
     FM280200 20009KT P6SM BKN060 BKN150 BKN250
     FM281000 18005KT P6SM SCT080 SCT250
     FM281400 19010G15KT P6SM SCT035 SCT080=

USA.gov is the U.S. government's official web portal to all federal, state and local government web resources and services.